Time;durP1;ratioP1;P1;durP2;ratioP2;P2;SDS_P1;SDS_P2;PMS_P1;PMS_P2;Temp;Humidity;BMP_temperature;BMP_pressure;BME280_temperature;BME280_humidity;BME280_pressure;Samples;Min_cycle;Max_cycle;Signal;HPM_P1;HPM_P2
2024/01/26 00:02:01;;;;;;;29.77;25.05;;;;;;;9.28;100.00;102231.81;5002493;28;20034;-65
2024/01/26 00:04:26;;;;;;;27.15;24.33;;;;;;;9.25;100.00;102218.63;5000942;28;20056;-65
2024/01/26 00:06:52;;;;;;;17.80;13.85;;;;;;;9.32;100.00;102227.25;5000970;28;20026;-66
2024/01/26 00:09:17;;;;;;;19.67;14.25;;;;;;;9.22;100.00;102205.47;5000418;28;20107;-66
2024/01/26 00:11:43;;;;;;;20.42;13.90;;;;;;;9.30;100.00;102219.34;5003037;28;20030;-66
2024/01/26 00:14:11;;;;;;;18.70;13.70;;;;;;;9.35;100.00;102219.16;4999465;28;20022;-65
2024/01/26 00:16:37;;;;;;;18.38;13.02;;;;;;;9.30;100.00;102219.34;5003833;28;20049;-65
2024/01/26 00:19:04;;;;;;;24.83;22.15;;;;;;;9.30;100.00;102221.16;5001326;28;20076;-65
2024/01/26 00:21:30;;;;;;;25.58;22.60;;;;;;;9.25;100.00;102218.63;5008907;28;20100;-66
2024/01/26 00:23:55;;;;;;;18.38;12.57;;;;;;;9.30;100.00;102223.81;5001037;28;20105;-66
2024/01/26 00:26:21;;;;;;;18.35;13.32;;;;;;;9.27;100.00;102219.47;5002264;28;20459;-65
2024/01/26 00:28:46;;;;;;;23.75;21.27;;;;;;;9.24;100.00;102208.09;5004623;28;20022;-66
2024/01/26 00:31:18;;;;;;;18.63;13.82;;;;;;;9.29;100.00;102225.59;5011028;28;20029;-66
2024/01/26 00:33:44;;;;;;;21.02;11.48;;;;;;;9.29;100.00;102220.28;5011340;28;20556;-65
2024/01/26 00:36:11;;;;;;;19.48;12.75;;;;;;;9.28;100.00;102215.00;5009602;28;20045;-66
2024/01/26 00:38:37;;;;;;;19.60;12.35;;;;;;;9.28;100.00;102212.34;5011357;28;20026;-66
2024/01/26 00:41:02;;;;;;;18.92;12.98;;;;;;;9.22;100.00;102205.47;5010640;28;20040;-66
2024/01/26 00:43:28;;;;;;;24.15;21.85;;;;;;;9.22;100.00;102210.78;5011001;28;20022;-66
2024/01/26 00:45:53;;;;;;;20.00;12.40;;;;;;;9.30;100.00;102210.53;5010899;28;20041;-65
2024/01/26 00:48:20;;;;;;;15.38;12.35;;;;;;;9.27;100.00;102211.50;5011110;28;20400;-65
2024/01/26 00:50:50;;;;;;;20.73;12.07;;;;;;;9.27;100.00;102202.69;5008797;28;20389;-65
2024/01/26 00:53:18;;;;;;;16.40;12.05;;;;;;;9.29;100.00;102208.78;5010556;28;20033;-65
2024/01/26 00:55:43;;;;;;;20.60;18.70;;;;;;;9.27;100.00;102203.53;5006895;28;20018;-66
2024/01/26 00:58:09;;;;;;;21.67;19.33;;;;;;;9.26;100.00;102196.47;5009539;28;20030;-66
2024/01/26 01:00:34;;;;;;;16.40;12.20;;;;;;;9.30;100.00;102205.22;5009482;28;20022;-65
2024/01/26 01:03:00;;;;;;;16.50;11.20;;;;;;;9.24;100.00;102195.69;5011117;28;20413;-65
2024/01/26 01:05:25;;;;;;;15.02;10.90;;;;;;;9.34;100.00;102198.88;5010617;28;20495;-65
2024/01/26 01:07:50;;;;;;;14.40;10.38;;;;;;;9.30;100.00;102190.16;5010910;28;20034;-65
2024/01/26 01:10:19;;;;;;;8.70;6.88;;;;;;;9.33;100.00;102195.34;5009833;28;20124;-65
2024/01/26 01:12:46;;;;;;;13.25;10.07;;;;;;;9.35;100.00;102202.38;5009416;28;20022;-65
2024/01/26 01:15:12;;;;;;;17.02;15.35;;;;;;;9.22;100.00;102173.63;5011263;28;20065;-65
2024/01/26 01:17:43;;;;;;;12.43;9.02;;;;;;;9.29;100.00;102188.44;5009848;28;20092;-65
2024/01/26 01:20:15;;;;;;;12.48;8.80;;;;;;;9.36;100.00;102197.03;5009106;28;20409;-65
2024/01/26 01:22:41;;;;;;;11.07;7.82;;;;;;;9.35;100.00;102184.66;5008756;28;20029;-65
2024/01/26 01:25:09;;;;;;;12.20;8.80;;;;;;;9.33;100.00;102182.06;5010556;28;20026;-66
2024/01/26 01:27:38;;;;;;;15.48;14.07;;;;;;;9.32;100.00;102174.16;5010448;28;20397;-66
2024/01/26 01:30:09;;;;;;;12.45;8.57;;;;;;;9.33;100.00;102171.44;5008426;28;20111;-66
2024/01/26 01:32:35;;;;;;;10.57;8.35;;;;;;;9.36;100.00;102172.28;4992047;28;20037;-66
2024/01/26 01:35:03;;;;;;;9.02;7.80;;;;;;;9.34;100.00;102174.97;5009890;28;20041;-66
2024/01/26 01:37:28;;;;;;;11.18;8.60;;;;;;;9.30;100.00;102163.59;5006959;28;20029;-66
2024/01/26 01:39:54;;;;;;;9.05;7.82;;;;;;;9.34;100.00;102177.63;5010674;28;20038;-65
2024/01/26 01:42:19;;;;;;;8.00;7.10;;;;;;;9.33;100.00;102170.59;5009925;28;20030;-65
2024/01/26 01:44:45;;;;;;;12.40;11.35;;;;;;;9.28;100.00;102165.44;5010206;28;20408;-66
2024/01/26 01:47:12;;;;;;;8.13;6.72;;;;;;;9.25;100.00;102149.63;5003725;28;20045;-65
2024/01/26 01:49:41;;;;;;;10.35;8.05;;;;;;;9.33;100.00;102146.69;5010518;28;20152;-66
2024/01/26 01:52:14;;;;;;;9.23;5.93;;;;;;;9.37;100.00;102152.75;5010102;28;20025;-66
2024/01/26 01:54:40;;;;;;;10.68;6.80;;;;;;;9.33;100.00;102152.00;5006858;28;20029;-66
2024/01/26 01:57:06;;;;;;;14.13;11.48;;;;;;;9.26;100.00;102158.44;5005053;28;20389;-65
2024/01/26 01:59:33;;;;;;;8.35;7.13;;;;;;;9.31;100.00;102149.38;5008853;28;20071;-65
2024/01/26 02:01:59;;;;;;;8.70;6.60;;;;;;;9.31;100.00;102145.88;5013106;28;20338;-66
2024/01/26 02:04:25;;;;;;;8.70;6.90;;;;;;;9.33;100.00;102138.72;5014165;28;20032;-66
2024/01/26 02:06:58;;;;;;;11.85;9.98;;;;;;;9.29;100.00;102143.28;5002957;28;20026;-66
2024/01/26 02:09:24;;;;;;;11.20;9.80;;;;;;;9.28;100.00;102130.91;5011339;28;20104;-66
2024/01/26 02:11:50;;;;;;;10.05;9.25;;;;;;;9.29;100.00;102131.78;5014373;28;20030;-65
2024/01/26 02:14:19;;;;;;;6.40;5.53;;;;;;;9.34;100.00;102127.19;5008895;28;20057;-65
2024/01/26 02:16:58;;;;;;;5.95;5.40;;;;;;;9.36;100.00;102116.50;5003912;28;20018;-65
2024/01/26 02:19:24;;;;;;;6.90;5.15;;;;;;;9.35;100.00;102117.41;5004153;28;20026;-66
2024/01/26 02:21:52;;;;;;;10.88;6.05;;;;;;;9.35;100.00;102115.63;5011148;28;20029;-65
2024/01/26 02:24:17;;;;;;;9.10;7.72;;;;;;;9.35;100.00;102114.75;5012821;28;20022;-65
2024/01/26 02:26:43;;;;;;;8.65;7.85;;;;;;;9.30;100.00;102105.19;5013625;28;20032;-66
2024/01/26 02:29:09;;;;;;;6.97;5.38;;;;;;;9.33;100.00;102106.88;5012574;28;20488;-66
2024/01/26 02:31:35;;;;;;;7.25;5.15;;;;;;;9.32;100.00;102108.66;5013285;28;20026;-66
2024/01/26 02:34:00;;;;;;;8.80;6.47;;;;;;;9.38;100.00;102114.66;5013079;28;20073;-66
2024/01/26 02:36:27;;;;;;;6.90;5.10;;;;;;;9.37;100.00;102103.16;5011518;28;20084;-66
2024/01/26 02:38:53;;;;;;;9.45;5.53;;;;;;;9.36;100.00;102108.53;5013385;28;20025;-66
2024/01/26 02:41:20;;;;;;;6.03;4.78;;;;;;;9.36;100.00;102093.47;5003532;28;20036;-66
2024/01/26 02:43:46;;;;;;;8.50;7.90;;;;;;;9.35;100.00;102090.88;5004736;28;20036;-66
2024/01/26 02:46:11;;;;;;;11.15;8.10;;;;;;;9.31;100.00;102075.06;5002843;28;20026;-66
2024/01/26 02:48:37;;;;;;;5.65;4.53;;;;;;;9.35;100.00;102082.91;5007662;28;20088;-66
2024/01/26 02:51:03;;;;;;;7.05;5.25;;;;;;;9.41;100.00;102085.31;5010885;28;20041;-65
2024/01/26 02:53:29;;;;;;;8.48;4.70;;;;;;;9.37;100.00;102073.09;5012821;28;20393;-66
2024/01/26 02:55:54;;;;;;;8.35;7.65;;;;;;;9.39;100.00;102073.91;5011300;28;20057;-66
2024/01/26 02:58:22;;;;;;;8.10;7.45;;;;;;;9.29;100.00;102046.84;4990616;28;20022;-65
2024/01/26 03:00:48;;;;;;;8.70;5.90;;;;;;;9.41;100.00;102061.41;5012397;28;20022;-65
2024/01/26 03:03:13;;;;;;;6.70;5.07;;;;;;;9.37;100.00;102051.84;5004049;28;20036;-65
2024/01/26 03:05:39;;;;;;;7.35;5.35;;;;;;;9.42;100.00;102057.88;5004549;28;20029;-65
2024/01/26 03:08:05;;;;;;;9.82;4.93;;;;;;;9.42;100.00;102045.44;5003639;28;20037;-66
2024/01/26 03:10:31;;;;;;;9.75;7.28;;;;;;;9.33;100.00;102045.81;5000858;28;20026;-66
2024/01/26 03:12:56;;;;;;;6.35;5.07;;;;;;;9.38;100.00;102048.25;4999881;28;20057;-65
2024/01/26 03:15:22;;;;;;;6.93;5.07;;;;;;;9.43;100.00;102047.16;5000510;28;20113;-66
2024/01/26 03:17:47;;;;;;;8.85;5.35;;;;;;;9.45;100.00;102047.13;5003325;28;20093;-66
2024/01/26 03:20:13;;;;;;;8.35;4.93;;;;;;;9.46;100.00;102027.59;5000757;28;20496;-66
2024/01/26 03:22:38;;;;;;;8.38;5.40;;;;;;;9.46;100.00;102023.16;5002558;28;20030;-66
2024/01/26 03:25:04;;;;;;;5.30;4.78;;;;;;;9.48;100.00;102023.97;4999073;28;20036;-66
2024/01/26 03:27:29;;;;;;;8.10;7.30;;;;;;;9.44;100.00;102019.72;5002537;28;20058;-66
2024/01/26 03:29:55;;;;;;;7.82;7.22;;;;;;;9.47;100.00;102013.38;5001810;28;20058;-66
2024/01/26 03:32:20;;;;;;;8.48;7.78;;;;;;;9.47;100.00;102013.38;5000135;28;20392;-65
2024/01/26 03:34:48;;;;;;;7.05;4.78;;;;;;;9.49;100.00;102009.75;5001976;28;20104;-66
2024/01/26 03:37:13;;;;;;;8.18;5.57;;;;;;;9.52;100.00;102008.75;5015739;28;20025;-66
2024/01/26 03:39:39;;;;;;;5.20;4.70;;;;;;;9.52;100.00;102006.97;5001079;28;20018;-66
2024/01/26 03:42:05;;;;;;;6.43;5.18;;;;;;;9.57;100.00;102001.47;5002131;28;20136;-66
2024/01/26 03:44:31;;;;;;;6.30;5.40;;;;;;;9.58;100.00;102015.63;5002338;28;20026;-66
2024/01/26 03:46:56;;;;;;;7.53;5.35;;;;;;;9.60;100.00;102013.78;5002247;28;20104;-66
2024/01/26 03:49:21;;;;;;;8.55;7.85;;;;;;;9.58;100.00;102010.31;5008896;28;20158;-66
2024/01/26 03:51:47;;;;;;;7.95;4.95;;;;;;;9.62;100.00;101996.84;5009799;28;20029;-66
2024/01/26 03:54:12;;;;;;;6.10;5.50;;;;;;;9.61;100.00;102000.41;5003523;28;20553;-66
2024/01/26 03:56:38;;;;;;;8.25;5.88;;;;;;;9.60;100.00;101988.06;5011615;28;20060;-66
2024/01/26 03:59:04;;;;;;;9.50;8.52;;;;;;;9.60;100.00;101987.22;5008628;28;20029;-66
2024/01/26 04:01:29;;;;;;;10.27;9.20;;;;;;;9.55;100.00;101977.63;5010933;28;20064;-65
2024/01/26 04:03:55;;;;;;;6.75;5.72;;;;;;;9.64;100.00;101983.50;5000103;28;20030;-66
2024/01/26 04:06:21;;;;;;;10.80;8.95;;;;;;;9.56;100.00;101978.50;4999032;28;20121;-66
2024/01/26 04:08:46;;;;;;;9.55;6.03;;;;;;;9.62;100.00;101980.91;4999293;28;20049;-65
2024/01/26 04:11:11;;;;;;;8.15;6.22;;;;;;;9.64;100.00;101983.50;5001191;28;20441;-66
2024/01/26 04:13:37;;;;;;;7.72;5.82;;;;;;;9.68;100.00;101975.34;5003857;28;20101;-65
2024/01/26 04:16:02;;;;;;;9.55;6.78;;;;;;;9.64;100.00;101957.78;5003145;28;20024;-66
2024/01/26 04:18:28;;;;;;;8.80;6.38;;;;;;;9.64;100.00;101962.25;5001814;28;20080;-66
2024/01/26 04:20:53;;;;;;;11.50;10.10;;;;;;;9.57;100.00;101936.88;5000857;28;20023;-66
2024/01/26 04:23:21;;;;;;;11.30;10.18;;;;;;;9.63;100.00;101955.22;4999255;28;20049;-65
2024/01/26 04:25:47;;;;;;;10.48;9.52;;;;;;;9.62;100.00;101935.75;5001765;28;20030;-65
2024/01/26 04:28:12;;;;;;;8.45;6.00;;;;;;;9.64;100.00;101925.06;5004235;28;20023;-66
2024/01/26 04:30:39;;;;;;;10.02;7.38;;;;;;;9.64;100.00;101930.38;5000588;28;20489;-65
2024/01/26 04:33:07;;;;;;;9.90;7.30;;;;;;;9.65;100.00;101927.66;5000679;28;20050;-66
2024/01/26 04:35:33;;;;;;;12.15;10.95;;;;;;;9.60;100.00;101926.13;5001636;28;20026;-65
2024/01/26 04:37:58;;;;;;;9.60;7.50;;;;;;;9.62;100.00;101919.84;4999677;28;20104;-65
2024/01/26 04:40:23;;;;;;;9.43;6.75;;;;;;;9.64;100.00;101917.94;4998894;28;20397;-66
2024/01/26 04:42:49;;;;;;;8.70;7.80;;;;;;;9.62;100.00;101913.63;5000159;28;20037;-66
2024/01/26 04:45:14;;;;;;;9.02;7.00;;;;;;;9.62;100.00;101927.78;5001508;28;20022;-65
2024/01/26 04:47:40;;;;;;;10.73;6.95;;;;;;;9.63;100.00;101910.91;4998778;28;20501;-65
2024/01/26 04:50:06;;;;;;;11.88;10.65;;;;;;;9.54;100.00;101925.44;5009546;28;20049;-65
2024/01/26 04:52:31;;;;;;;10.90;7.47;;;;;;;9.61;100.00;101920.75;5004052;28;20157;-66
2024/01/26 04:54:57;;;;;;;14.23;7.45;;;;;;;9.63;100.00;101912.72;5007303;28;20042;-65
2024/01/26 04:57:22;;;;;;;12.15;10.90;;;;;;;9.57;100.00;101912.97;5005731;28;20075;-65
2024/01/26 04:59:48;;;;;;;10.40;7.60;;;;;;;9.61;100.00;101909.25;5008957;28;20029;-66
2024/01/26 05:02:13;;;;;;;9.90;7.93;;;;;;;9.59;100.00;101917.31;5006355;28;20026;-66
2024/01/26 05:04:39;;;;;;;8.43;7.25;;;;;;;9.63;100.00;101908.25;5008339;28;20041;-66
2024/01/26 05:07:04;;;;;;;12.30;7.82;;;;;;;9.61;100.00;101907.47;5010161;28;20563;-65
2024/01/26 05:09:29;;;;;;;12.02;10.35;;;;;;;9.52;100.00;101899.88;5011131;28;20040;-66
2024/01/26 05:11:55;;;;;;;11.70;10.50;;;;;;;9.54;100.00;101900.69;5008953;28;20030;-66
2024/01/26 05:14:24;;;;;;;9.68;7.43;;;;;;;9.61;100.00;101893.31;5010413;28;20034;-65
2024/01/26 05:16:49;;;;;;;8.80;7.05;;;;;;;9.64;100.00;101887.88;5010971;28;20022;-65
2024/01/26 05:19:15;;;;;;;13.77;7.47;;;;;;;9.59;100.00;101881.88;5010850;28;20080;-66
2024/01/26 05:21:40;;;;;;;7.60;6.53;;;;;;;9.62;100.00;101876.44;5009240;28;20022;-65
2024/01/26 05:24:06;;;;;;;12.50;11.30;;;;;;;9.56;100.00;101880.25;5009746;28;20022;-66
2024/01/26 05:26:31;;;;;;;7.18;6.43;;;;;;;9.69;100.00;101888.56;5010439;28;20101;-65
2024/01/26 05:28:57;;;;;;;9.90;7.03;;;;;;;9.70;100.00;101879.63;5011195;28;20032;-65
2024/01/26 05:31:22;;;;;;;9.63;6.90;;;;;;;9.59;100.00;101857.97;5009686;28;20022;-65
2024/01/26 05:33:48;;;;;;;12.05;10.88;;;;;;;9.43;100.00;101853.31;5010138;28;20649;-65
2024/01/26 05:36:13;;;;;;;10.45;6.72;;;;;;;9.55;100.00;101862.56;5010952;28;20867;-65
2024/01/26 05:38:43;;;;;;;9.65;7.32;;;;;;;9.54;100.00;101850.22;5014545;28;20022;-65
2024/01/26 05:41:09;;;;;;;12.98;11.48;;;;;;;9.45;100.00;101842.66;5010247;28;20523;-65
2024/01/26 05:43:37;;;;;;;11.65;10.45;;;;;;;9.44;100.00;101851.53;5005435;28;20030;-65
2024/01/26 05:46:05;;;;;;;12.35;11.15;;;;;;;9.40;100.00;101847.28;5012802;28;20108;-65
2024/01/26 05:48:30;;;;;;;10.25;6.88;;;;;;;9.45;100.00;101848.81;5008288;28;20062;-65
2024/01/26 05:50:56;;;;;;;8.43;6.35;;;;;;;9.47;100.00;101846.09;5013258;28;20053;-65
2024/01/26 05:53:21;;;;;;;11.18;7.57;;;;;;;9.43;100.00;101847.16;5004019;28;20109;-65
2024/01/26 05:55:47;;;;;;;11.55;7.68;;;;;;;9.39;100.00;101838.47;5013543;28;20139;-65
2024/01/26 05:58:12;;;;;;;15.40;7.85;;;;;;;9.39;100.00;101841.13;5010440;28;20109;-65
2024/01/26 06:00:38;;;;;;;14.48;12.68;;;;;;;9.35;100.00;101839.50;5012298;28;20025;-65
2024/01/26 06:03:03;;;;;;;9.88;7.60;;;;;;;9.40;100.00;101829.56;5008431;28;20038;-64
2024/01/26 06:05:29;;;;;;;9.20;7.28;;;;;;;9.39;100.00;101829.66;5012289;28;20032;-65
2024/01/26 06:07:56;;;;;;;11.48;7.72;;;;;;;9.40;100.00;101834.88;5012218;28;20088;-65
2024/01/26 06:10:21;;;;;;;11.35;7.88;;;;;;;9.38;100.00;101836.72;5013949;28;20022;-65
2024/01/26 06:12:47;;;;;;;11.95;7.65;;;;;;;9.40;100.00;101826.06;5014095;28;20481;-65
2024/01/26 06:15:12;;;;;;;11.90;7.97;;;;;;;9.36;100.00;101827.13;5012667;28;20026;-64
2024/01/26 06:17:39;;;;;;;13.25;8.73;;;;;;;9.36;100.00;101833.28;5013079;28;20018;-65
2024/01/26 06:20:05;;;;;;;10.65;8.48;;;;;;;9.35;100.00;101810.31;5014299;28;20381;-65
2024/01/26 06:22:30;;;;;;;14.38;8.82;;;;;;;9.35;100.00;101812.97;5013645;28;20034;-65
2024/01/26 06:24:56;;;;;;;10.55;8.68;;;;;;;9.37;100.00;101807.59;5013864;28;20088;-65
2024/01/26 06:27:21;;;;;;;11.15;7.95;;;;;;;9.35;100.00;101804.13;5010802;28;20509;-64
2024/01/26 06:29:47;;;;;;;10.43;8.18;;;;;;;9.38;100.00;101818.13;5012386;28;20041;-64
2024/01/26 06:32:12;;;;;;;12.73;8.20;;;;;;;9.42;100.00;101819.75;5012740;28;20037;-64
2024/01/26 06:34:40;;;;;;;11.15;7.28;;;;;;;9.61;100.00;101818.94;5012806;28;20117;-64
2024/01/26 06:37:05;;;;;;;15.15;8.27;;;;;;;9.44;100.00;101817.91;5012643;28;20025;-64
2024/01/26 06:39:33;;;;;;;12.15;8.90;;;;;;;9.37;100.00;101815.56;5012947;28;20025;-64
2024/01/26 06:41:58;;;;;;;10.63;8.25;;;;;;;9.41;100.00;101819.78;5011560;28;20121;-64
2024/01/26 06:44:26;;;;;;;13.18;8.30;;;;;;;9.40;100.00;101815.44;5011694;28;20467;-64
2024/01/26 06:46:51;;;;;;;11.20;8.25;;;;;;;9.38;100.00;101802.19;5008640;28;20149;-65
2024/01/26 06:49:17;;;;;;;15.10;13.70;;;;;;;9.49;100.00;101813.22;5009266;28;20030;-64
2024/01/26 06:51:43;;;;;;;12.32;8.93;;;;;;;9.47;100.00;101811.56;5011818;28;20021;-64
2024/01/26 06:54:08;;;;;;;12.57;8.07;;;;;;;9.49;100.00;101809.72;5012400;28;20022;-65
2024/01/26 06:56:33;;;;;;;12.13;8.80;;;;;;;9.62;100.00;101802.97;5012212;28;20060;-64
2024/01/26 06:58:59;;;;;;;15.25;13.68;;;;;;;9.50;100.00;101806.13;5008752;28;20053;-64
2024/01/26 07:01:24;;;;;;;11.70;7.72;;;;;;;9.61;100.00;101790.59;5010946;28;20109;-65
2024/01/26 07:03:50;;;;;;;9.85;8.07;;;;;;;9.54;100.00;101800.63;5001312;28;20028;-64
2024/01/26 07:06:15;;;;;;;9.35;7.63;;;;;;;9.60;100.00;101810.13;5000159;28;20544;-65
2024/01/26 07:08:40;;;;;;;12.40;8.30;;;;;;;9.47;100.00;101795.63;5001743;28;20541;-64
2024/01/26 07:11:06;;;;;;;10.05;7.80;;;;;;;9.72;100.00;101777.69;5006116;28;20101;-65
2024/01/26 07:13:31;;;;;;;11.05;8.13;;;;;;;9.59;100.00;101794.25;5005720;28;20022;-64
2024/01/26 07:15:57;;;;;;;7.88;7.05;;;;;;;9.62;100.00;101776.41;5001716;28;20085;-64
2024/01/26 07:18:22;;;;;;;13.48;8.23;;;;;;;9.61;100.00;101790.59;5003855;28;20442;-64
2024/01/26 07:20:48;;;;;;;12.65;8.32;;;;;;;9.64;100.00;101784.28;4999545;28;20528;-64
2024/01/26 07:23:13;;;;;;;13.07;7.82;;;;;;;9.63;100.00;101786.09;4995889;28;20426;-64
2024/01/26 07:25:38;;;;;;;9.60;7.95;;;;;;;9.62;100.00;101784.38;5001418;28;20064;-65
2024/01/26 07:28:07;;;;;;;10.30;8.13;;;;;;;9.71;100.00;101781.31;5011519;28;20037;-65
2024/01/26 07:30:33;;;;;;;8.25;7.32;;;;;;;9.71;100.00;101781.31;5011416;28;20401;-64
2024/01/26 07:32:59;;;;;;;10.75;7.85;;;;;;;9.74;100.00;101775.84;5011178;28;20026;-64
2024/01/26 07:35:24;;;;;;;14.07;12.77;;;;;;;9.72;100.00;101761.78;5011676;28;20026;-64
2024/01/26 07:37:50;;;;;;;13.82;12.52;;;;;;;9.81;100.00;101770.25;5009800;28;20060;-64
2024/01/26 07:40:18;;;;;;;13.93;12.45;;;;;;;9.73;100.00;101762.63;5011727;28;20029;-65
2024/01/26 07:42:46;;;;;;;9.85;7.72;;;;;;;9.88;100.00;101771.69;5009894;28;20563;-64
2024/01/26 07:45:12;;;;;;;9.30;6.72;;;;;;;9.76;100.00;101760.72;5011784;28;20495;-64
2024/01/26 07:47:38;;;;;;;13.48;12.20;;;;;;;9.85;100.00;101777.16;5009953;28;20038;-64
2024/01/26 07:50:05;;;;;;;14.30;12.88;;;;;;;9.85;100.00;101785.97;5008674;28;20076;-64
2024/01/26 07:52:31;;;;;;;10.93;7.40;;;;;;;9.92;100.00;101783.94;5012334;28;20030;-64
2024/01/26 07:54:57;;;;;;;10.65;6.47;;;;;;;10.05;100.00;101805.47;5011355;28;20535;-64
2024/01/26 07:57:24;;;;;;;10.20;6.00;;;;;;;10.14;100.00;101797.94;5010362;28;20033;-64
2024/01/26 07:59:52;;;;;;;13.60;12.30;;;;;;;9.97;100.00;101800.50;5011029;28;20026;-64
2024/01/26 08:02:17;;;;;;;13.65;12.35;;;;;;;9.88;100.00;101809.78;5011096;28;20080;-64
2024/01/26 08:04:43;;;;;;;11.38;8.10;;;;;;;9.92;100.00;101819.34;5010433;28;20030;-65
2024/01/26 08:07:08;;;;;;;11.90;7.53;;;;;;;9.96;100.00;101833.34;5009634;28;20036;-64
2024/01/26 08:09:34;;;;;;;9.32;7.25;;;;;;;10.00;100.00;101813.69;5011776;28;20030;-64
2024/01/26 08:12:00;;;;;;;13.32;11.98;;;;;;;10.00;100.00;101825.19;5002243;28;20057;-64
2024/01/26 08:14:27;;;;;;;9.70;7.18;;;;;;;10.01;100.00;101832.22;4998702;28;20029;-64
2024/01/26 08:16:53;;;;;;;12.02;7.78;;;;;;;10.01;100.00;101818.06;5007602;28;20057;-64
2024/01/26 08:19:18;;;;;;;11.00;8.05;;;;;;;10.01;100.00;101826.03;5011768;28;20057;-64
2024/01/26 08:21:46;;;;;;;12.75;7.53;;;;;;;9.96;100.00;101815.59;5011306;28;20032;-64
2024/01/26 08:24:14;;;;;;;12.48;11.18;;;;;;;10.11;100.00;101834.44;5011909;28;20060;-64
2024/01/26 08:26:39;;;;;;;7.95;6.25;;;;;;;10.18;100.00;101839.44;5000289;28;20037;-64
2024/01/26 08:29:07;;;;;;;12.90;11.10;;;;;;;10.16;100.00;101827.13;5002949;28;20030;-64
2024/01/26 08:31:33;;;;;;;8.50;6.57;;;;;;;10.18;100.00;101830.59;5003485;28;20026;-64
2024/01/26 08:33:58;;;;;;;8.57;6.40;;;;;;;10.12;100.00;101828.22;4996426;28;20038;-64
2024/01/26 08:36:23;;;;;;;14.40;11.13;;;;;;;10.14;100.00;101832.50;4991419;28;20398;-64
2024/01/26 08:38:54;;;;;;;6.93;5.97;;;;;;;10.14;100.00;101840.47;4992272;28;20466;-64
2024/01/26 08:41:20;;;;;;;8.93;6.03;;;;;;;10.15;100.00;101852.00;4991739;28;20034;-64
2024/01/26 08:43:45;;;;;;;7.13;5.45;;;;;;;10.20;100.00;101840.19;4991908;28;20050;-64
2024/01/26 08:46:11;;;;;;;10.65;9.38;;;;;;;10.15;100.00;101839.56;5006621;28;20030;-64
2024/01/26 08:48:36;;;;;;;11.43;6.18;;;;;;;10.21;100.00;101839.28;5011769;28;20033;-64
2024/01/26 08:51:02;;;;;;;9.73;7.43;;;;;;;10.21;100.00;101847.25;5009627;28;20102;-64
2024/01/26 08:53:27;;;;;;;7.75;6.82;;;;;;;10.21;100.00;101843.75;5011510;28;20026;-64
2024/01/26 08:55:53;;;;;;;14.55;10.60;;;;;;;10.18;100.00;101836.75;5007175;28;20013;-64
2024/01/26 08:58:18;;;;;;;12.75;11.48;;;;;;;10.16;100.00;101830.66;5009204;28;20025;-64
2024/01/26 09:00:45;;;;;;;8.80;6.95;;;;;;;10.27;100.00;101842.63;5008874;28;20018;-65
2024/01/26 09:03:11;;;;;;;11.50;7.68;;;;;;;10.22;100.00;101846.31;5007669;28;20022;-64
2024/01/26 09:05:36;;;;;;;12.57;11.38;;;;;;;10.22;100.00;101854.28;5011487;28;20032;-64
2024/01/26 09:08:02;;;;;;;9.48;7.88;;;;;;;10.24;100.00;101839.16;5006774;28;20069;-62
2024/01/26 09:10:27;;;;;;;9.05;7.85;;;;;;;10.25;100.00;101847.97;5013897;28;20100;-65
2024/01/26 09:12:53;;;;;;;12.82;11.52;;;;;;;10.22;100.00;101853.44;5022506;28;20018;-65
2024/01/26 09:15:18;;;;;;;13.27;7.95;;;;;;;10.19;100.00;101873.03;5009312;28;20439;-66
2024/01/26 09:17:44;;;;;;;11.07;8.35;;;;;;;10.22;100.00;101904.81;5009055;28;20108;-65
2024/01/26 09:20:10;;;;;;;11.98;8.63;;;;;;;10.26;100.00;101897.53;5010711;28;20056;-65
2024/01/26 09:22:35;;;;;;;8.35;6.65;;;;;;;10.04;100.00;101889.69;5008774;28;20026;-65
2024/01/26 09:25:01;;;;;;;9.80;4.90;;;;;;;10.15;100.00;101929.09;5010586;28;20080;-65
2024/01/26 09:27:28;;;;;;;9.35;3.92;;;;;;;10.11;100.00;101931.00;5008636;28;20446;-66
2024/01/26 09:29:53;;;;;;;11.27;4.90;;;;;;;10.07;100.00;101917.91;5009655;28;20057;-65
2024/01/26 09:32:19;;;;;;;8.82;4.82;;;;;;;9.98;100.00;101919.19;5008876;28;20064;-65
2024/01/26 09:34:44;;;;;;;6.75;4.07;;;;;;;10.14;100.00;101925.53;5009893;28;20064;-65
2024/01/26 09:37:12;;;;;;;7.72;3.60;;;;;;;10.12;100.00;101926.56;5005132;28;20021;-65
2024/01/26 09:39:37;;;;;;;10.40;3.78;;;;;;;10.09;100.00;101921.34;5007828;28;20025;-65
2024/01/26 09:42:05;;;;;;;9.68;4.95;;;;;;;10.06;100.00;101932.13;5008909;28;20026;-65
2024/01/26 09:44:30;;;;;;;15.15;5.32;;;;;;;10.03;100.00;101938.47;5010261;28;20095;-65
2024/01/26 09:46:57;;;;;;;12.45;3.63;;;;;;;10.07;100.00;101960.44;5008679;28;20469;-65
2024/01/26 09:49:25;;;;;;;9.50;3.35;;;;;;;10.07;100.00;101984.38;5010250;28;20076;-65
2024/01/26 09:51:51;;;;;;;18.40;5.35;;;;;;;9.97;100.00;102029.94;5007512;28;20048;-65
2024/01/26 09:54:19;;;;;;;11.05;4.32;;;;;;;9.73;100.00;102034.44;5004330;28;20025;-65
2024/01/26 09:56:46;;;;;;;13.07;4.53;;;;;;;9.62;100.00;102065.91;5009681;28;20169;-65
2024/01/26 09:59:11;;;;;;;10.63;4.10;;;;;;;9.55;100.00;102067.94;5009336;28;20045;-65
2024/01/26 10:01:39;;;;;;;10.88;3.05;;;;;;;9.52;100.00;102075.16;5008819;28;20503;-65
2024/01/26 10:04:04;;;;;;;6.72;2.80;;;;;;;9.58;100.00;102082.03;5009675;28;20030;-63
2024/01/26 10:06:30;;;;;;;4.15;2.60;;;;;;;9.57;100.00;102099.75;5010099;28;20488;-65
2024/01/26 10:08:55;;;;;;;10.13;3.38;;;;;;;9.57;100.00;102098.91;5010280;28;20041;-65
2024/01/26 10:11:21;;;;;;;14.93;4.75;;;;;;;9.45;100.00;102102.88;5000815;28;20105;-66
2024/01/26 10:13:46;;;;;;;10.70;3.00;;;;;;;9.43;100.00;102102.06;5006056;28;20018;-64
2024/01/26 10:16:12;;;;;;;6.88;2.67;;;;;;;9.45;100.00;102109.06;5009943;28;20028;-64
2024/01/26 10:18:43;;;;;;;13.65;3.55;;;;;;;9.42;100.00;102111.84;5009340;28;20026;-64
2024/01/26 10:21:10;;;;;;;13.13;3.85;;;;;;;9.38;100.00;102112.00;5009659;28;20026;-64
2024/01/26 10:23:36;;;;;;;7.50;3.25;;;;;;;9.36;100.00;102130.66;5011971;28;20025;-64
2024/01/26 10:26:02;;;;;;;8.90;3.45;;;;;;;9.30;100.00;102125.56;5012960;28;20037;-63
2024/01/26 10:28:27;;;;;;;9.98;3.50;;;;;;;9.32;100.00;102134.31;5012815;28;20097;-65
2024/01/26 10:30:53;;;;;;;15.02;3.67;;;;;;;9.38;100.00;102142.06;5013247;28;20030;-65
2024/01/26 10:33:22;;;;;;;16.38;5.38;;;;;;;9.38;100.00;102152.69;5011432;28;20029;-66
2024/01/26 10:35:50;;;;;;;11.10;2.88;;;;;;;9.44;100.00;102155.13;5013565;28;20044;-66
2024/01/26 10:38:16;;;;;;;9.25;3.33;;;;;;;9.47;100.00;102162.97;5012638;28;20033;-65
2024/01/26 10:40:43;;;;;;;21.67;4.78;;;;;;;9.75;100.00;102165.44;5012150;28;20090;-66
2024/01/26 10:43:09;;;;;;;21.55;6.20;;;;;;;10.24;100.00;102147.56;5003029;28;20032;-66
2024/01/26 10:45:35;;;;;;;16.17;4.90;;;;;;;10.73;100.00;102181.06;5011868;28;20037;-66
2024/01/26 10:48:01;;;;;;;20.88;3.88;;;;;;;10.89;100.00;102176.81;5012827;28;20038;-66
2024/01/26 10:50:26;;;;;;;12.38;3.67;;;;;;;10.93;100.00;102172.22;5012175;28;20041;-66
2024/01/26 10:52:54;;;;;;;18.75;3.63;;;;;;;11.06;100.00;102192.94;5012995;28;20044;-66
2024/01/26 10:55:20;;;;;;;17.65;5.03;;;;;;;10.87;96.60;102210.63;5012518;28;20060;-66
2024/01/26 10:57:45;;;;;;;17.00;4.97;;;;;;;11.18;93.71;102218.16;5013022;28;20418;-66
2024/01/26 11:00:13;;;;;;;14.75;4.68;;;;;;;11.13;92.89;102220.16;5012110;28;20029;-66
2024/01/26 11:02:43;;;;;;;17.33;4.50;;;;;;;11.23;92.55;102231.25;5012719;28;20036;-66
2024/01/26 11:05:12;;;;;;;12.32;3.28;;;;;;;11.53;89.09;102245.91;5011061;28;20045;-66
2024/01/26 11:07:39;;;;;;;7.75;2.25;;;;;;;11.71;84.74;102262.03;4975827;28;20038;-66
2024/01/26 11:10:10;;;;;;;11.23;3.60;;;;;;;11.25;81.84;102262.22;5002931;28;20120;-66
2024/01/26 11:12:37;;;;;;;12.20;3.78;;;;;;;11.14;83.02;102273.34;5009820;28;20188;-66